createdAt,value
2018-08-31T00:00:24.601Z,55.3
2018-08-31T00:01:14.710Z,55.3
2018-08-31T00:02:04.248Z,55.3
2018-08-31T00:02:54.617Z,55.3
2018-08-31T00:03:44.867Z,55.3
2018-08-31T00:04:34.709Z,55.3
2018-08-31T00:05:24.475Z,55.3
2018-08-31T00:06:14.820Z,55.3
2018-08-31T00:07:05.154Z,55.3
2018-08-31T00:07:55.226Z,55.3
2018-08-31T00:08:44.725Z,55.2
2018-08-31T00:09:35.337Z,55.2
2018-08-31T00:10:25.724Z,55.2
2018-08-31T00:11:15.462Z,55.2
2018-08-31T00:12:04.670Z,55.2
2018-08-31T00:31:30.420Z,55
2018-08-31T00:32:19.136Z,55
2018-08-31T00:33:08.948Z,55
2018-08-31T00:33:59.852Z,55
2018-08-31T00:34:49.630Z,55
2018-08-31T00:35:39.983Z,55
2018-08-31T00:36:30.219Z,54.9
2018-08-31T00:37:19.812Z,54.9
2018-08-31T00:38:09.869Z,54.9
2018-08-31T00:39:00.225Z,54.9
2018-08-31T00:39:49.746Z,54.9
2018-08-31T00:40:39.530Z,54.9
2018-08-31T00:41:30.372Z,54.9
2018-08-31T00:42:20.540Z,54.9
2018-08-31T00:43:10.517Z,54.9
2018-08-31T00:44:00.347Z,54.9
2018-08-31T00:44:49.789Z,54.9
2018-08-31T00:45:40.729Z,54.9
2018-08-31T00:46:30.860Z,54.9
2018-08-31T00:47:20.282Z,54.9
2018-08-31T00:48:10.940Z,54.9
2018-08-31T00:49:00.744Z,54.9
2018-08-31T00:49:50.812Z,54.9
2018-08-31T00:50:40.868Z,54.8
2018-08-31T00:51:30.619Z,54.8
2018-08-31T00:52:21.497Z,54.9
2018-08-31T00:53:11.026Z,54.8
2018-08-31T00:54:01.399Z,54.8
2018-08-31T00:54:51.146Z,54.8
2018-08-31T00:55:41.493Z,54.8
2018-08-31T00:56:31.014Z,54.8
2018-08-31T00:57:21.292Z,54.8
2018-08-31T00:58:11.421Z,54.8
2018-08-31T00:59:01.771Z,54.8
2018-08-31T00:59:51.245Z,54.8
2018-08-31T01:00:41.903Z,54.8
2018-08-31T01:01:31.643Z,54.8
2018-08-31T01:02:21.414Z,54.8
2018-08-31T01:03:11.298Z,54.7
2018-08-31T01:04:02.173Z,54.7
2018-08-31T01:04:51.931Z,54.8
2018-08-31T01:05:41.388Z,54.7
2018-08-31T01:06:32.049Z,54.7
2018-08-31T01:07:22.081Z,54.7
2018-08-31T01:08:11.886Z,54.7
2018-08-31T01:09:02.536Z,54.7
2018-08-31T01:09:52.298Z,54.7
2018-08-31T01:10:42.053Z,54.7
2018-08-31T01:11:32.438Z,54.6
2018-08-31T01:12:23.002Z,54.6
2018-08-31T01:13:13.144Z,54.6
2018-08-31T01:14:02.648Z,54.6
2018-08-31T01:14:52.759Z,54.6
2018-08-31T01:15:43.047Z,54.6
2018-08-31T01:16:33.125Z,54.6
2018-08-31T01:17:22.610Z,54.6
2018-08-31T01:18:13.222Z,54.6
2018-08-31T01:19:03.293Z,54.6
2018-08-31T01:19:52.788Z,54.6
2018-08-31T01:20:43.420Z,54.6
2018-08-31T01:21:32.915Z,54.6
2018-08-31T01:22:23.557Z,54.6
2018-08-31T01:23:13.353Z,54.6
2018-08-31T01:24:03.120Z,54.6
2018-08-31T01:24:53.789Z,54.6
2018-08-31T01:25:43.840Z,54.5
2018-08-31T01:26:33.304Z,54.5
2018-08-31T01:27:23.952Z,54.5
2018-08-31T01:28:13.725Z,54.5
2018-08-31T01:29:04.072Z,54.5
2018-08-31T01:29:54.147Z,54.5
2018-08-31T01:30:43.603Z,54.5
2018-08-31T01:31:33.975Z,54.4
2018-08-31T01:32:23.459Z,54.4
2018-08-31T01:33:14.241Z,54.4
2018-08-31T01:34:04.730Z,54.4
2018-08-31T01:34:54.260Z,54.4
2018-08-31T01:35:44.364Z,54.4
2018-08-31T01:36:34.371Z,54.4
2018-08-31T01:37:24.429Z,54.4
2018-08-31T01:38:14.802Z,54.4
2018-08-31T01:39:04.602Z,54.4
2018-08-31T01:39:54.361Z,54.4
2018-08-31T01:40:44.391Z,54.4
2018-08-31T01:41:34.214Z,54.4
2018-08-31T01:42:24.556Z,54.4
2018-08-31T01:43:14.887Z,54.4
2018-08-31T01:44:05.523Z,54.4
2018-08-31T01:44:54.996Z,54.4
2018-08-31T01:45:45.069Z,54.4
2018-08-31T01:46:35.395Z,54.3
2018-08-31T01:47:25.194Z,54.3
2018-08-31T01:48:15.538Z,54.3
2018-08-31T01:49:05.605Z,54.3
2018-08-31T01:49:55.078Z,54.3
2018-08-31T01:50:45.161Z,54.3
2018-08-31T01:51:35.519Z,54.3
2018-08-31T01:52:25.846Z,54.3
2018-08-31T01:53:15.645Z,54.3
2018-08-31T01:54:05.830Z,54.3
2018-08-31T01:54:55.502Z,54.3
2018-08-31T01:55:46.112Z,54.3
2018-08-31T01:56:35.613Z,54.3
2018-08-31T01:57:25.991Z,54.3
2018-08-31T01:58:16.013Z,54.2
2018-08-31T01:59:06.105Z,54.2
2018-08-31T01:59:56.178Z,54.2
2018-08-31T02:00:45.961Z,54.2
2018-08-31T02:01:36.275Z,54.2
2018-08-31T02:02:26.385Z,54.2
2018-08-31T02:03:16.421Z,54.2
2018-08-31T02:04:07.232Z,54.2
2018-08-31T02:04:56.267Z,54.2
2018-08-31T02:05:46.915Z,54.1
2018-08-31T02:06:36.947Z,54.1
2018-08-31T02:07:27.039Z,54.1
2018-08-31T02:08:16.507Z,54.1
2018-08-31T02:09:07.145Z,54.1
2018-08-31T02:09:57.265Z,54.1
2018-08-31T02:10:46.695Z,54.1
2018-08-31T02:11:36.487Z,54.1
2018-08-31T02:12:26.555Z,54.1
2018-08-31T02:13:17.180Z,54.1
2018-08-31T02:14:07.549Z,54.1
2018-08-31T02:14:57.574Z,54.1
2018-08-31T02:15:47.659Z,54.1
2018-08-31T02:16:37.722Z,54.1
2018-08-31T02:17:27.224Z,54.1
2018-08-31T02:18:17.554Z,54.1
2018-08-31T02:19:06.814Z,54
2018-08-31T02:19:57.703Z,54
2018-08-31T02:20:47.758Z,54
2018-08-31T02:21:37.882Z,54
2018-08-31T02:22:27.649Z,54.1
2018-08-31T02:23:18.091Z,54
2018-08-31T02:24:08.032Z,54
2018-08-31T02:24:57.824Z,54
2018-08-31T02:25:48.454Z,54
2018-08-31T02:26:38.763Z,53.9
2018-08-31T02:27:28.562Z,54
2018-08-31T02:28:18.351Z,53.9
2018-08-31T02:29:08.408Z,53.9
2018-08-31T02:29:58.739Z,53.9
2018-08-31T02:30:47.989Z,53.9
2018-08-31T02:31:38.883Z,53.9
2018-08-31T02:32:28.651Z,53.9
2018-08-31T02:33:19.022Z,53.9
2018-08-31T02:34:09.083Z,53.9
2018-08-31T02:34:58.858Z,53.9
2018-08-31T02:35:48.925Z,53.9
2018-08-31T02:36:38.996Z,53.9
2018-08-31T02:37:29.076Z,53.9
2018-08-31T02:38:19.382Z,53.9
2018-08-31T02:39:09.791Z,53.9
2018-08-31T02:39:59.519Z,53.9
2018-08-31T02:40:49.593Z,53.8
2018-08-31T02:41:39.355Z,53.9
2018-08-31T02:42:29.160Z,53.8
2018-08-31T02:43:19.480Z,53.8
2018-08-31T02:44:09.576Z,53.8
2018-08-31T02:44:59.853Z,53.8
2018-08-31T02:45:49.701Z,53.8
2018-08-31T02:46:39.750Z,53.8
2018-08-31T02:47:30.072Z,53.8
2018-08-31T02:48:20.190Z,53.8
2018-08-31T02:49:09.675Z,53.8
2018-08-31T02:49:59.720Z,53.8
2018-08-31T02:50:50.304Z,53.8
2018-08-31T02:51:40.120Z,53.8
2018-08-31T02:52:30.258Z,53.8
2018-08-31T02:53:19.968Z,53.8
2018-08-31T02:54:10.677Z,53.8
2018-08-31T02:55:00.675Z,53.8
2018-08-31T02:55:49.929Z,53.8
2018-08-31T02:56:40.235Z,53.7
2018-08-31T02:57:30.877Z,53.7
2018-08-31T02:58:20.672Z,53.7
2018-08-31T02:59:11.085Z,53.7
2018-08-31T03:00:01.343Z,53.7
2018-08-31T03:00:51.371Z,53.7
2018-08-31T03:01:40.962Z,53.7
2018-08-31T03:02:30.950Z,53.7
2018-08-31T03:03:20.464Z,53.6
2018-08-31T03:04:11.385Z,53.6
2018-08-31T03:05:01.408Z,53.6
2018-08-31T03:05:51.215Z,53.6
2018-08-31T03:06:41.264Z,53.6
2018-08-31T03:07:31.071Z,53.6
2018-08-31T03:08:20.909Z,53.6
2018-08-31T03:09:11.487Z,53.6
2018-08-31T03:10:01.563Z,53.6
2018-08-31T03:10:51.896Z,53.6
2018-08-31T03:11:43.031Z,53.6
2018-08-31T03:12:31.804Z,53.6
2018-08-31T03:13:21.567Z,53.6
2018-08-31T03:14:12.160Z,53.6
2018-08-31T03:15:01.921Z,53.6
2018-08-31T03:15:52.307Z,53.6
2018-08-31T03:16:42.595Z,53.6
2018-08-31T03:17:32.422Z,53.5
2018-08-31T03:18:21.588Z,53.5
2018-08-31T03:19:12.351Z,53.5
2018-08-31T03:20:02.423Z,53.5
2018-08-31T03:20:52.655Z,53.5
2018-08-31T03:21:43.008Z,53.5
2018-08-31T03:22:32.788Z,53.5
2018-08-31T03:23:22.845Z,53.4
2018-08-31T03:24:12.653Z,53.4
2018-08-31T03:25:02.733Z,53.5
2018-08-31T03:25:52.832Z,53.4
2018-08-31T03:26:42.827Z,53.4
2018-08-31T03:27:32.898Z,53.4
2018-08-31T03:28:23.239Z,53.4
2018-08-31T03:29:13.007Z,53.4
2018-08-31T03:30:03.099Z,53.4
2018-08-31T03:30:53.218Z,53.4
2018-08-31T03:31:42.970Z,53.4
2018-08-31T03:32:33.418Z,53.4
2018-08-31T03:33:23.367Z,53.4
2018-08-31T03:34:13.675Z,53.4
2018-08-31T03:35:03.609Z,53.4
2018-08-31T03:35:53.487Z,53.4
2018-08-31T03:36:43.751Z,53.4
2018-08-31T03:37:33.396Z,53.4
2018-08-31T03:38:24.017Z,53.4
2018-08-31T03:39:14.075Z,53.3
2018-08-31T03:40:03.862Z,53.3
2018-08-31T03:40:54.168Z,53.4
2018-08-31T03:41:43.706Z,53.3
2018-08-31T03:42:33.166Z,53.3
2018-08-31T03:43:23.894Z,53.3
2018-08-31T03:44:13.886Z,53.3
2018-08-31T03:45:04.254Z,53.3
2018-08-31T03:45:54.811Z,53.3
2018-08-31T03:46:44.631Z,53.3
2018-08-31T03:47:34.436Z,53.3
2018-08-31T03:48:24.511Z,53.3
2018-08-31T03:49:14.292Z,53.3
2018-08-31T03:50:04.636Z,53.3
2018-08-31T03:50:54.364Z,53.3
2018-08-31T03:51:45.073Z,53.3
2018-08-31T03:52:35.126Z,53.3
2018-08-31T03:53:24.595Z,53.3
2018-08-31T03:54:15.223Z,53.3
2018-08-31T03:55:05.306Z,53.2
2018-08-31T03:55:55.351Z,53.2
2018-08-31T03:56:45.090Z,53.2
2018-08-31T03:57:35.455Z,53.2
2018-08-31T03:58:24.962Z,53.2
2018-08-31T03:59:15.298Z,53.2
2018-08-31T04:00:05.383Z,53.2
2018-08-31T04:00:55.756Z,53.2
2018-08-31T04:01:45.525Z,53.1
2018-08-31T04:02:35.572Z,53.1
2018-08-31T04:03:25.985Z,53.2
2018-08-31T04:04:16.001Z,53.1
2018-08-31T04:05:05.797Z,53.1
2018-08-31T04:05:56.130Z,53.1
2018-08-31T04:06:46.161Z,53.1
2018-08-31T04:07:36.204Z,53.1
2018-08-31T04:08:26.319Z,53.1
2018-08-31T04:09:15.817Z,53.1
2018-08-31T04:10:06.477Z,53.1
2018-08-31T04:10:56.501Z,53.1
2018-08-31T04:11:46.543Z,53.1
2018-08-31T04:12:36.895Z,53.1
2018-08-31T04:13:26.422Z,53.1
2018-08-31T04:14:16.796Z,53.1
2018-08-31T04:15:07.595Z,53.1
2018-08-31T04:15:56.895Z,53.1
2018-08-31T04:16:45.772Z,53.1
2018-08-31T04:17:36.169Z,53
2018-08-31T04:18:27.105Z,53
2018-08-31T04:19:17.171Z,53
2018-08-31T04:20:07.184Z,53
2018-08-31T04:20:57.268Z,53
2018-08-31T04:21:46.766Z,53
2018-08-31T04:22:37.135Z,53
2018-08-31T04:23:27.179Z,53
2018-08-31T04:24:17.269Z,53
2018-08-31T04:25:07.102Z,53
2018-08-31T04:25:56.631Z,52.9
2018-08-31T04:26:47.726Z,52.9
2018-08-31T04:27:37.199Z,52.9
2018-08-31T04:28:27.401Z,52.9
2018-08-31T04:29:17.746Z,52.9
2018-08-31T04:30:07.753Z,52.9
2018-08-31T04:30:57.756Z,52.9
2018-08-31T04:31:47.503Z,52.9
2018-08-31T04:32:37.899Z,52.9
2018-08-31T04:33:27.958Z,52.9
2018-08-31T04:34:18.062Z,52.9
2018-08-31T04:35:07.533Z,52.9
2018-08-31T04:35:57.561Z,52.9
2018-08-31T04:36:48.186Z,52.9
2018-08-31T04:37:37.700Z,52.9
2018-08-31T04:38:28.553Z,52.9
2018-08-31T04:39:18.153Z,52.9
2018-08-31T04:40:07.901Z,52.9
2018-08-31T04:40:57.706Z,52.8
2018-08-31T04:41:48.894Z,52.8
2018-08-31T04:42:38.718Z,52.8
2018-08-31T05:00:16.842Z,52.7
2018-08-31T05:01:06.826Z,52.7
2018-08-31T05:01:57.137Z,52.6
2018-08-31T05:02:47.484Z,52.7
2018-08-31T05:03:37.063Z,52.6
2018-08-31T05:04:27.178Z,52.6
2018-08-31T05:05:16.984Z,52.6
2018-08-31T05:06:07.487Z,52.6
2018-08-31T05:06:57.792Z,52.6
2018-08-31T05:07:47.564Z,52.6
2018-08-31T05:08:36.921Z,52.6
2018-08-31T05:09:27.437Z,52.6
2018-08-31T05:10:18.026Z,52.6
2018-08-31T05:11:07.843Z,52.6
2018-08-31T05:11:57.633Z,52.6
2018-08-31T05:12:48.224Z,52.6
2018-08-31T05:13:38.314Z,52.6
2018-08-31T05:14:27.639Z,52.6
2018-08-31T05:15:18.165Z,52.6
2018-08-31T05:16:09.127Z,52.5
2018-08-31T05:16:58.275Z,52.6
2018-08-31T05:17:48.661Z,52.5
2018-08-31T05:18:38.685Z,52.5
2018-08-31T05:19:28.182Z,52.5
2018-08-31T05:20:18.795Z,52.5
2018-08-31T05:21:08.423Z,52.5
2018-08-31T05:21:59.136Z,52.5
2018-08-31T05:22:49.905Z,52.5
2018-08-31T05:23:39.300Z,52.5
2018-08-31T05:24:28.879Z,52.5
2018-08-31T05:25:19.269Z,52.4
2018-08-31T05:26:09.297Z,52.4
2018-08-31T05:26:59.052Z,52.4
2018-08-31T05:27:48.822Z,52.4
2018-08-31T05:28:39.604Z,52.4
2018-08-31T05:29:29.334Z,52.4
2018-08-31T05:30:19.361Z,52.4
2018-08-31T05:31:09.711Z,52.4
2018-08-31T05:31:59.979Z,52.4
2018-08-31T05:32:49.852Z,52.4
2018-08-31T05:41:09.591Z,52.3
2018-08-31T05:42:00.497Z,52.3
2018-08-31T05:42:49.711Z,52.3
2018-08-31T05:43:40.599Z,52.3
2018-08-31T05:44:30.129Z,52.3
2018-08-31T05:45:19.694Z,52.3
2018-08-31T05:46:10.267Z,52.3
2018-08-31T05:47:00.334Z,52.3
2018-08-31T05:47:49.255Z,52.3
2018-08-31T05:48:41.071Z,52.3
2018-08-31T05:49:30.771Z,52.3
2018-08-31T05:50:20.868Z,52.3
2018-08-31T05:51:11.467Z,52.3
2018-08-31T05:52:00.981Z,52.3
2018-08-31T05:52:50.454Z,52.3
2018-08-31T05:53:41.371Z,52.3
2018-08-31T05:54:31.184Z,52.2
2018-08-31T05:55:21.258Z,52.2
2018-08-31T05:56:11.011Z,52.2
2018-08-31T05:57:01.361Z,52.2
2018-08-31T05:57:51.178Z,52.2
2018-08-31T05:58:41.216Z,52.2
2018-08-31T05:59:31.805Z,52.2
2018-08-31T06:00:21.613Z,52.2
2018-08-31T06:01:12.281Z,52.2
2018-08-31T06:02:02.266Z,52.2
2018-08-31T06:02:52.133Z,52.2
2018-08-31T06:03:42.181Z,52.1
2018-08-31T06:04:32.211Z,52.1
2018-08-31T06:05:22.291Z,52.1
2018-08-31T06:06:11.217Z,52.1
2018-08-31T06:07:02.400Z,52.1
2018-08-31T06:07:52.254Z,52.1
2018-08-31T06:08:42.256Z,52.1
2018-08-31T06:09:32.585Z,52.1
2018-08-31T06:10:22.750Z,52.1
2018-08-31T06:11:12.162Z,52.1
2018-08-31T06:12:04.440Z,52.1
2018-08-31T06:12:52.070Z,52.1
2018-08-31T06:13:42.907Z,52.1
2018-08-31T06:14:32.730Z,52.1
2018-08-31T06:15:22.500Z,52.1
2018-08-31T06:16:12.857Z,52.1
2018-08-31T06:17:02.902Z,52.1
2018-08-31T06:17:52.703Z,52.1
2018-08-31T06:18:42.799Z,52.1
2018-08-31T06:19:33.131Z,52
2018-08-31T06:20:22.892Z,52.1
2018-08-31T06:21:14.033Z,52
2018-08-31T06:22:03.084Z,52
2018-08-31T06:22:52.849Z,52
2018-08-31T06:23:43.437Z,52
2018-08-31T06:24:33.506Z,52
2018-08-31T06:25:24.091Z,52
2018-08-31T06:26:13.619Z,52
2018-08-31T06:37:03.713Z,51.9
2018-08-31T06:37:54.214Z,51.9
2018-08-31T06:38:44.702Z,51.9
2018-08-31T06:39:34.658Z,51.9
2018-08-31T06:40:24.145Z,51.9
2018-08-31T06:41:14.528Z,51.9
2018-08-31T06:42:04.576Z,51.8
2018-08-31T06:42:55.175Z,51.9
2018-08-31T06:43:45.030Z,51.9
2018-08-31T06:44:35.030Z,51.8
2018-08-31T06:45:25.391Z,51.8
2018-08-31T06:46:15.451Z,51.8
2018-08-31T06:47:05.231Z,51.8
2018-08-31T06:47:55.262Z,51.8
2018-08-31T06:48:45.688Z,51.8
2018-08-31T06:49:35.715Z,51.8
2018-08-31T06:50:25.755Z,51.8
2018-08-31T06:51:15.189Z,51.8
2018-08-31T06:52:05.640Z,51.8
2018-08-31T06:52:55.703Z,51.8
2018-08-31T06:53:45.481Z,51.8
2018-08-31T06:54:36.115Z,51.9
2018-08-31T06:55:25.462Z,51.8
2018-08-31T06:56:15.953Z,51.6
2018-08-31T06:57:06.307Z,51.5
2018-08-31T06:57:56.070Z,51.4
2018-08-31T06:58:46.135Z,51.4
2018-08-31T06:59:36.205Z,51.4
2018-08-31T07:00:26.542Z,51.4
2018-08-31T07:01:16.045Z,51.3
2018-08-31T07:02:06.624Z,51.3
2018-08-31T07:02:56.311Z,51.3
2018-08-31T07:03:47.011Z,51.3
2018-08-31T07:04:36.595Z,51.3
2018-08-31T07:05:26.371Z,51.3
2018-08-31T07:06:16.974Z,51.3
2018-08-31T07:07:06.280Z,51.3
2018-08-31T07:07:57.480Z,51.3
2018-08-31T07:08:47.614Z,51.2
2018-08-31T07:09:38.589Z,51.3
2018-08-31T07:10:27.060Z,51.2
2018-08-31T07:11:17.396Z,51.2
2018-08-31T07:12:06.916Z,51.2
2018-08-31T07:12:57.281Z,51.2
2018-08-31T07:13:47.562Z,51.2
2018-08-31T07:14:37.368Z,51.2
2018-08-31T07:15:27.156Z,51.1
2018-08-31T07:16:18.049Z,51.2
2018-08-31T07:17:07.274Z,51.1
2018-08-31T07:17:57.373Z,51.1
2018-08-31T07:18:47.971Z,51.1
2018-08-31T07:19:38.184Z,51.1
2018-08-31T07:20:27.843Z,51
2018-08-31T07:21:17.681Z,51
2018-08-31T07:22:07.425Z,51
2018-08-31T07:22:57.773Z,51
2018-08-31T07:23:48.368Z,51
2018-08-31T07:24:38.430Z,50.9
2018-08-31T07:25:27.730Z,50.9
2018-08-31T07:26:19.025Z,50.9
2018-08-31T07:27:08.344Z,50.9
2018-08-31T07:27:58.411Z,50.9
2018-08-31T07:28:48.487Z,50.9
2018-08-31T07:29:38.836Z,50.9
2018-08-31T07:30:28.361Z,50.9
2018-08-31T07:31:19.218Z,50.9
2018-08-31T07:32:08.142Z,50.9
2018-08-31T07:32:58.817Z,50.9
2018-08-31T07:33:48.343Z,50.8
2018-08-31T07:34:39.244Z,50.8
2018-08-31T07:35:28.765Z,50.9
2018-08-31T07:36:20.306Z,50.9
2018-08-31T07:37:09.166Z,50.9
2018-08-31T07:37:59.482Z,50.9
2018-08-31T07:38:49.324Z,50.9
2018-08-31T07:39:39.612Z,51
2018-08-31T07:40:28.844Z,51.1
2018-08-31T07:41:19.474Z,51.1
2018-08-31T07:42:09.854Z,51.1
2018-08-31T07:42:59.872Z,51.2
2018-08-31T07:43:49.947Z,51.3
2018-08-31T07:44:39.759Z,51.3
2018-08-31T07:45:29.754Z,51.3
2018-08-31T07:46:20.087Z,51.3
2018-08-31T07:47:10.432Z,51.4
2018-08-31T07:48:00.429Z,51.4
2018-08-31T07:48:50.054Z,51.5
2018-08-31T07:49:39.849Z,51.5
2018-08-31T07:50:30.463Z,51.6
2018-08-31T07:51:19.958Z,51.6
2018-08-31T07:52:10.571Z,51.7
2018-08-31T07:53:00.704Z,51.8
2018-08-31T07:53:51.331Z,51.8
2018-08-31T07:54:40.989Z,51.9
2018-08-31T07:55:30.867Z,51.9
2018-08-31T07:57:10.999Z,52
2018-08-31T07:58:00.501Z,52.1
2018-08-31T07:58:50.316Z,52.1
2018-08-31T07:59:41.153Z,52.1
2018-08-31T08:00:30.979Z,52.2
2018-08-31T08:01:21.273Z,52.3
2018-08-31T08:02:10.763Z,52.3
2018-08-31T08:03:50.972Z,52.4
2018-08-31T08:04:41.046Z,52.4
2018-08-31T08:05:31.466Z,52.6
2018-08-31T08:06:21.221Z,52.6
2018-08-31T08:07:11.526Z,52.6
2018-08-31T08:08:01.266Z,52.7
2018-08-31T08:08:51.603Z,52.8
2018-08-31T08:09:41.100Z,52.8
2018-08-31T08:10:31.448Z,52.9
2018-08-31T08:11:21.223Z,52.9
2018-08-31T08:12:11.820Z,52.9
2018-08-31T08:13:01.697Z,53
2018-08-31T08:13:51.733Z,53.1
2018-08-31T08:14:42.395Z,53.1
2018-08-31T08:15:32.448Z,53.2
2018-08-31T08:16:22.231Z,53.3
2018-08-31T08:17:11.788Z,53.3
2018-08-31T08:18:02.314Z,53.4
2018-08-31T08:18:51.814Z,53.4
2018-08-31T08:19:43.062Z,53.5
2018-08-31T08:20:32.360Z,53.6
2018-08-31T08:21:22.837Z,53.6
2018-08-31T08:22:12.382Z,53.6
2018-08-31T08:23:02.960Z,53.7
2018-08-31T08:23:52.197Z,53.8
2018-08-31T08:24:42.595Z,53.8
2018-08-31T08:25:33.184Z,53.9
2018-08-31T08:26:23.200Z,53.9
2018-08-31T08:27:13.332Z,54
2018-08-31T08:28:02.827Z,54
2018-08-31T08:28:53.154Z,54.1
2018-08-31T08:29:43.280Z,54.1
2018-08-31T08:30:33.301Z,54.2
2018-08-31T08:31:23.127Z,54.3
2018-08-31T08:32:13.432Z,54.3
2018-08-31T08:33:03.216Z,54.4
2018-08-31T08:33:53.017Z,54.4
2018-08-31T08:34:43.332Z,54.5
2018-08-31T08:35:33.989Z,54.6
2018-08-31T08:36:23.439Z,54.6
2018-08-31T08:37:13.829Z,54.6
2018-08-31T08:38:03.626Z,54.7
2018-08-31T08:38:53.479Z,54.8
2018-08-31T08:39:44.538Z,54.8
2018-08-31T08:40:34.117Z,54.9
2018-08-31T08:41:24.412Z,54.9
2018-08-31T08:42:15.903Z,54.9
2018-08-31T08:43:04.279Z,55
2018-08-31T08:43:54.619Z,55.1
2018-08-31T08:44:43.824Z,55.1
2018-08-31T08:45:34.794Z,55.2
2018-08-31T08:46:24.261Z,55.3
2018-08-31T08:47:14.859Z,55.3
2018-08-31T08:48:04.393Z,55.3
2018-08-31T08:48:54.326Z,55.4
2018-08-31T08:49:45.055Z,55.4
2018-08-31T08:50:34.345Z,55.5
2018-08-31T08:51:25.223Z,55.6
2018-08-31T08:52:14.999Z,55.6
2018-08-31T08:53:05.003Z,55.6
2018-08-31T08:53:55.646Z,55.7
2018-08-31T08:54:45.394Z,55.8
2018-08-31T08:55:35.253Z,55.8
2018-08-31T08:56:25.301Z,55.9
2018-08-31T08:57:15.138Z,55.9
2018-08-31T08:58:05.310Z,55.9
2018-08-31T09:14:48.171Z,57
2018-08-31T09:15:38.079Z,57.1
2018-08-31T09:16:27.845Z,57.1
2018-08-31T09:17:18.460Z,57.2
2018-08-31T09:18:08.270Z,57.2
2018-08-31T09:18:58.349Z,57.3
2018-08-31T09:19:48.636Z,57.3
2018-08-31T09:20:38.432Z,57.4
2018-08-31T09:21:28.523Z,57.4
2018-08-31T09:22:18.331Z,57.5
2018-08-31T09:23:08.628Z,57.6
2018-08-31T09:23:58.764Z,57.6
2018-08-31T09:24:49.816Z,57.6
2018-08-31T09:25:39.151Z,57.7
2018-08-31T09:26:29.156Z,57.7
2018-08-31T09:28:09.029Z,57.8
2018-08-31T09:28:58.793Z,57.8
2018-08-31T09:29:48.858Z,57.9
2018-08-31T09:30:38.958Z,57.9
2018-08-31T09:31:29.551Z,58
2018-08-31T09:32:18.805Z,58
2018-08-31T09:33:09.164Z,58.1
2018-08-31T09:33:59.762Z,58.1
2018-08-31T09:34:50.076Z,58.1
2018-08-31T09:35:39.900Z,58.2
2018-08-31T09:36:29.117Z,58.3
2018-08-31T09:37:19.492Z,58.3
2018-08-31T09:38:09.512Z,58.3
2018-08-31T09:38:59.313Z,58.3
2018-08-31T09:39:50.477Z,58.4
2018-08-31T09:40:39.965Z,58.4
2018-08-31T09:41:30.139Z,58.4
2018-08-31T09:42:20.142Z,58.5
2018-08-31T09:45:40.379Z,58.6
2018-08-31T09:46:30.445Z,58.7
2018-08-31T09:47:19.997Z,58.7
2018-08-31T09:48:10.296Z,58.8
2018-08-31T09:49:00.650Z,58.8
2018-08-31T09:49:51.911Z,58.8
2018-08-31T09:50:41.026Z,58.9
2018-08-31T09:51:30.839Z,58.9
2018-08-31T09:52:21.200Z,58.9
2018-08-31T09:53:11.009Z,59
2018-08-31T09:54:00.775Z,59.1
2018-08-31T09:54:50.298Z,59.1
2018-08-31T09:55:41.699Z,59.1
2018-08-31T09:56:30.651Z,59.1
2018-08-31T09:58:49.813Z,59.3
2018-08-31T09:59:22.818Z,59.3
2018-08-31T10:00:13.428Z,59.3
2018-08-31T10:01:04.248Z,59.4
2018-08-31T10:01:53.783Z,59.4
2018-08-31T10:02:43.649Z,59.4
2018-08-31T10:03:33.643Z,59.5
2018-08-31T10:04:24.002Z,59.6
2018-08-31T10:05:14.385Z,59.6
2018-08-31T10:06:03.289Z,59.6
2018-08-31T10:06:53.347Z,59.7
2018-08-31T10:07:43.707Z,59.7
2018-08-31T10:08:34.065Z,59.8
2018-08-31T10:09:24.203Z,59.8
2018-08-31T10:10:14.720Z,59.9
2018-08-31T10:11:04.767Z,59.9
2018-08-31T10:11:54.013Z,59.9
2018-08-31T10:12:44.675Z,59.9
2018-08-31T10:13:34.715Z,60
2018-08-31T10:14:24.800Z,60.1
2018-08-31T10:15:14.584Z,60.1
2018-08-31T10:16:05.163Z,60.1
2018-08-31T10:16:55.037Z,60.2
2018-08-31T10:17:45.061Z,60.3
2018-08-31T10:18:34.834Z,60.3
2018-08-31T10:19:25.599Z,60.3
2018-08-31T10:20:15.254Z,60.4
2018-08-31T10:21:05.279Z,60.4
2018-08-31T10:21:55.117Z,60.5
2018-08-31T10:22:45.450Z,60.5
2018-08-31T10:23:35.512Z,60.6
2018-08-31T10:24:25.821Z,60.6
2018-08-31T10:25:15.637Z,60.6
2018-08-31T10:26:06.231Z,60.7
2018-08-31T10:26:55.077Z,60.8
2018-08-31T10:27:45.807Z,60.8
2018-08-31T10:28:35.320Z,60.8
2018-08-31T10:29:25.976Z,60.8
2018-08-31T10:30:16.524Z,60.9
2018-08-31T10:31:06.239Z,60.9
2018-08-31T10:31:56.361Z,61
2018-08-31T10:32:45.954Z,61.1
2018-08-31T10:33:35.723Z,61.1
2018-08-31T10:34:26.416Z,61.1
2018-08-31T10:35:15.856Z,61.2
2018-08-31T10:36:06.454Z,61.2
2018-08-31T10:36:56.529Z,61.3
2018-08-31T10:37:46.681Z,61.3
2018-08-31T10:38:36.673Z,61.4
2018-08-31T10:39:26.405Z,61.4
2018-08-31T10:40:16.494Z,61.4
2018-08-31T10:41:06.878Z,61.5
2018-08-31T10:41:56.635Z,61.6
2018-08-31T10:42:46.429Z,61.6
2018-08-31T10:43:35.933Z,61.6
2018-08-31T10:44:26.781Z,61.6
2018-08-31T10:45:16.913Z,61.7
2018-08-31T10:46:06.983Z,61.8
2018-08-31T10:46:57.347Z,61.8
2018-08-31T10:47:47.385Z,61.8
2018-08-31T10:48:37.217Z,61.9
2018-08-31T10:49:27.222Z,61.9
2018-08-31T10:50:17.600Z,61.9
2018-08-31T10:51:07.344Z,62
2018-08-31T10:51:57.719Z,62.1
2018-08-31T10:52:47.239Z,62.1
2018-08-31T10:53:37.000Z,62.1
2018-08-31T10:54:27.902Z,62.2
2018-08-31T10:55:18.002Z,62.3
2018-08-31T10:56:07.752Z,62.3
2018-08-31T10:56:58.137Z,62.3
2018-08-31T10:57:47.892Z,62.4
2018-08-31T10:58:37.692Z,62.4
2018-08-31T10:59:28.362Z,62.4
2018-08-31T11:00:17.886Z,62.5
2018-08-31T11:01:07.949Z,62.6
2018-08-31T11:01:58.494Z,62.6
2018-08-31T11:02:48.579Z,62.6
2018-08-31T11:03:38.977Z,62.7
2018-08-31T11:04:28.442Z,62.8
2018-08-31T11:05:17.652Z,62.8
2018-08-31T11:06:08.827Z,62.8
2018-08-31T11:06:58.913Z,62.9
2018-08-31T11:07:48.984Z,62.9
2018-08-31T11:08:38.997Z,62.9
2018-08-31T11:09:28.837Z,63
2018-08-31T11:10:19.141Z,63
2018-08-31T11:11:09.236Z,63.1
2018-08-31T11:11:58.723Z,63.1
2018-08-31T11:12:51.263Z,63.1
2018-08-31T11:13:39.399Z,63.2
2018-08-31T11:14:29.191Z,63.3
2018-08-31T11:15:20.779Z,63.3
2018-08-31T11:16:09.586Z,63.3
2018-08-31T11:16:59.680Z,63.4
2018-08-31T11:17:49.711Z,63.4
2018-08-31T11:18:39.834Z,63.4
2018-08-31T11:19:29.284Z,63.5
2018-08-31T11:20:19.653Z,63.5
2018-08-31T11:21:09.710Z,63.6
2018-08-31T11:22:00.091Z,63.6
2018-08-31T11:22:50.426Z,63.6
2018-08-31T11:23:40.253Z,63.7
2018-08-31T11:24:30.264Z,63.8
2018-08-31T11:25:19.815Z,63.8
2018-08-31T11:26:09.808Z,63.8
2018-08-31T11:27:00.163Z,63.8
2018-08-31T11:27:50.159Z,63.9
2018-08-31T11:28:40.016Z,63.9
2018-08-31T11:29:30.130Z,63.9
2018-08-31T11:30:20.742Z,64
2018-08-31T11:31:10.230Z,64
2018-08-31T11:32:00.848Z,64.1
2018-08-31T11:32:51.217Z,64.1
2018-08-31T11:33:40.965Z,64.1
2018-08-31T11:35:01.785Z,64.2
2018-08-31T11:35:35.659Z,64.3
2018-08-31T11:37:15.624Z,64.3
2018-08-31T11:37:50.752Z,64.4
2018-08-31T11:38:42.295Z,64.4
2018-08-31T11:39:31.754Z,64.4
2018-08-31T11:40:21.484Z,64.4
2018-08-31T11:41:11.661Z,64.5
2018-08-31T11:42:01.685Z,64.5
2018-08-31T11:43:20.825Z,64.6
2018-08-31T11:43:41.510Z,64.6
2018-08-31T11:44:31.794Z,64.6
2018-08-31T11:45:21.576Z,64.7
2018-08-31T11:46:11.691Z,64.7
2018-08-31T11:47:01.742Z,64.7
2018-08-31T11:48:07.789Z,64.8
2018-08-31T11:48:42.396Z,64.8
2018-08-31T11:49:32.405Z,64.9
2018-08-31T11:50:21.718Z,64.9
2018-08-31T11:51:12.286Z,64.9
2018-08-31T11:52:02.120Z,64.9
2018-08-31T11:52:52.478Z,65
2018-08-31T11:53:41.678Z,65
2018-08-31T11:54:32.651Z,65.1
2018-08-31T11:55:23.088Z,65.1
2018-08-31T11:56:12.404Z,65.1
2018-08-31T11:57:02.266Z,65.1
2018-08-31T11:57:52.617Z,65.2
2018-08-31T11:58:42.691Z,65.2
2018-08-31T11:59:32.703Z,65.3
2018-08-31T12:00:22.776Z,65.3
2018-08-31T12:01:13.011Z,65.3
2018-08-31T12:02:04.169Z,65.3
2018-08-31T12:02:52.690Z,65.4
2018-08-31T12:03:43.823Z,65.4
2018-08-31T12:04:33.131Z,65.4
2018-08-31T12:05:22.896Z,65.4
2018-08-31T12:06:12.953Z,65.5
2018-08-31T12:07:03.570Z,65.5
2018-08-31T12:07:53.057Z,65.6
2018-08-31T12:08:43.700Z,65.6
2018-08-31T12:09:33.460Z,65.6
2018-08-31T12:10:23.582Z,65.6
2018-08-31T12:11:13.919Z,65.7
2018-08-31T12:12:03.393Z,65.7
2018-08-31T12:12:54.064Z,65.7
2018-08-31T12:13:43.822Z,65.8
2018-08-31T12:14:33.897Z,65.8
2018-08-31T12:15:23.955Z,65.8
2018-08-31T12:16:14.290Z,65.8
2018-08-31T12:17:04.357Z,65.8
2018-08-31T12:17:54.462Z,65.9
2018-08-31T12:18:44.517Z,65.9
2018-08-31T12:19:34.782Z,65.9
2018-08-31T12:20:25.342Z,66
2018-08-31T12:21:14.983Z,66
2018-08-31T12:22:04.461Z,66
2018-08-31T12:22:54.280Z,66
2018-08-31T12:23:58.968Z,66.1
2018-08-31T12:24:34.692Z,66.1
2018-08-31T12:25:54.607Z,66.1